Time;durP1;ratioP1;P1;durP2;ratioP2;P2;SDS_P1;SDS_P2;PMS_P1;PMS_P2;Temp;Humidity;BMP_temperature;BMP_pressure;BME280_temperature;BME280_humidity;BME280_pressure;Samples;Min_cycle;Max_cycle;Signal;HPM_P1;HPM_P2
2022/03/27 00:01:59;;;;;;;66.57;30.27;;;;;;;-3.78;58.92;101154.88;1780831;80;21483;-58
2022/03/27 00:04:25;;;;;;;74.93;31.97;;;;;;;-3.78;59.05;101156.16;1778585;80;20959;-59
2022/03/27 00:06:52;;;;;;;69.00;30.90;;;;;;;-3.78;59.12;101148.50;1774958;79;20926;-59
2022/03/27 00:09:19;;;;;;;63.00;28.83;;;;;;;-3.80;59.17;101152.70;1778394;79;20969;-59
2022/03/27 00:11:45;;;;;;;59.55;28.55;;;;;;;-3.84;59.26;101160.26;1777553;80;21079;-59
2022/03/27 00:14:12;;;;;;;64.58;29.72;;;;;;;-3.83;59.31;101161.98;1779741;80;20962;-59
2022/03/27 00:16:39;;;;;;;51.10;24.30;;;;;;;-3.82;59.43;101157.73;1773981;79;20914;-59
2022/03/27 00:19:06;;;;;;;60.10;25.23;;;;;;;-3.83;59.49;101164.53;1773144;80;20907;-59
2022/03/27 00:21:33;;;;;;;51.13;24.40;;;;;;;-3.84;59.58;101167.91;1768835;79;21110;-59
2022/03/27 00:23:59;;;;;;;52.30;25.02;;;;;;;-3.86;59.62;101161.88;1766264;80;21084;-60
2022/03/27 00:26:26;;;;;;;62.53;23.77;;;;;;;-3.87;59.63;101157.57;1782257;80;20922;-59
2022/03/27 00:28:53;;;;;;;58.23;26.10;;;;;;;-3.86;59.82;101163.16;1781782;79;20893;-59
2022/03/27 00:31:20;;;;;;;53.20;28.37;;;;;;;-3.86;59.85;101166.98;1765149;80;20922;-59
2022/03/27 00:33:47;;;;;;;62.03;27.37;;;;;;;-3.83;59.93;101168.36;1772574;80;21140;-59
2022/03/27 00:36:15;;;;;;;;;;;;;;;-3.75;59.99;101176.67;1783166;79;21190;-59
2022/03/27 00:38:44;;;;;;;56.95;28.07;;;;;;;-3.73;60.03;101175.05;1754835;80;20107;-60
2022/03/27 00:41:11;;;;;;;62.60;28.87;;;;;;;-3.75;59.98;101180.12;1787524;79;20901;-59
2022/03/27 00:43:39;;;;;;;65.10;29.57;;;;;;;-3.75;59.99;101179.22;1772741;80;20938;-59
2022/03/27 00:46:06;;;;;;;74.10;29.27;;;;;;;-3.78;60.02;101179.13;1779439;80;20997;-59
2022/03/27 00:48:34;;;;;;;76.60;30.40;;;;;;;-3.77;60.10;101188.53;1767499;79;21083;-59
2022/03/27 00:51:01;;;;;;;63.38;30.37;;;;;;;-3.76;60.13;101192.81;1769241;80;20935;-59
2022/03/27 00:53:28;;;;;;;65.72;29.85;;;;;;;-3.85;60.13;101186.58;1775579;79;20853;-59
2022/03/27 00:55:55;;;;;;;62.83;30.30;;;;;;;-3.85;60.18;101186.58;1768500;80;20972;-59
2022/03/27 00:58:22;;;;;;;;;;;;;;;-3.86;60.14;101189.09;1769804;79;21611;-59
2022/03/27 01:01:04;;;;;;;68.90;29.20;;;;;;;-3.88;60.36;101183.92;1764800;79;21129;-59
2022/03/27 01:03:31;;;;;;;57.90;28.60;;;;;;;-3.87;60.29;101183.09;1772148;80;20899;-59
2022/03/27 01:05:58;;;;;;;66.22;30.55;;;;;;;-3.92;60.48;101176.98;1771420;80;21484;-59
2022/03/27 01:11:21;;;;;;;57.60;28.17;;;;;;;-3.98;60.63;101184.41;1773226;80;20923;-59
2022/03/27 01:13:57;;;;;;;59.08;27.62;;;;;;;-4.02;60.65;101180.02;1772197;79;21045;-59
2022/03/27 01:16:47;;;;;;;59.75;24.30;;;;;;;-4.07;60.70;101177.30;1773394;79;20884;-59
2022/03/27 01:19:18;;;;;;;62.73;24.50;;;;;;;-4.08;60.73;101172.16;1742683;79;21818;-59
2022/03/27 01:21:47;;;;;;;58.33;24.37;;;;;;;-4.12;60.80;101176.67;1772143;79;21525;-59
2022/03/27 01:24:17;;;;;;;56.13;24.45;;;;;;;-4.17;60.80;101167.98;1768822;79;20977;-59
2022/03/27 01:26:44;;;;;;;44.13;20.95;;;;;;;-4.20;60.86;101161.50;1766530;80;21770;-59
2022/03/27 01:29:13;;;;;;;52.67;21.65;;;;;;;-4.27;60.90;101168.94;1780950;79;20911;-59
2022/03/27 01:31:40;;;;;;;47.98;24.43;;;;;;;-4.32;61.01;101175.55;1767159;79;20954;-59
2022/03/27 01:34:07;;;;;;;39.45;18.98;;;;;;;-4.32;61.13;101170.45;1771014;79;21440;-59
2022/03/27 01:36:35;;;;;;;49.53;20.72;;;;;;;-4.34;61.18;101179.75;1770836;80;20949;-59
2022/03/27 01:39:08;;;;;;;54.03;20.48;;;;;;;-4.35;61.28;101175.44;1776372;80;21926;-59
2022/03/27 01:41:37;;;;;;;48.85;22.75;;;;;;;-4.37;61.42;101174.55;1766014;80;20930;-59
2022/03/27 01:44:06;;;;;;;58.58;21.12;;;;;;;-4.37;61.52;101180.92;1757205;80;21531;-59
2022/03/27 01:46:37;;;;;;;48.05;21.57;;;;;;;-4.36;61.59;101180.09;1771391;79;20920;-59
2022/03/27 01:49:07;;;;;;;50.75;20.88;;;;;;;-4.37;61.73;101173.65;1764371;79;20899;-59
2022/03/27 01:51:35;;;;;;;51.37;21.52;;;;;;;-4.39;61.66;101181.67;1768438;79;21928;-59
2022/03/27 01:54:01;;;;;;;54.10;22.00;;;;;;;-4.42;61.75;101183.70;1768069;79;20898;-59
2022/03/27 01:56:28;;;;;;;59.80;22.05;;;;;;;-4.43;61.71;101174.30;1765996;80;20891;-58
2022/03/27 01:58:55;;;;;;;34.98;18.70;;;;;;;-4.48;61.80;101180.93;1756013;79;21098;-59
2022/03/27 02:01:22;;;;;;;44.60;18.40;;;;;;;-4.52;61.86;101175.23;1759061;79;20895;-59
2022/03/27 02:03:50;;;;;;;46.40;22.67;;;;;;;-4.54;61.92;101176.47;1766108;80;21092;-59
2022/03/27 02:06:17;;;;;;;;;;;;;;;-4.52;61.94;101179.92;1778546;79;20958;-59
2022/03/27 02:08:44;;;;;;;;;;;;;;;-4.53;62.06;101174.79;1777144;79;20169;-59
2022/03/27 02:11:10;;;;;;;40.23;18.00;;;;;;;-4.54;62.12;101179.02;1777295;79;28794;-59
2022/03/27 02:13:37;;;;;;;41.90;19.03;;;;;;;-4.57;62.07;101181.84;1773958;79;20903;-59
2022/03/27 02:16:04;;;;;;;51.58;19.92;;;;;;;-4.59;62.15;101177.11;1768837;80;21004;-59
2022/03/27 02:18:32;;;;;;;41.95;19.27;;;;;;;-4.63;62.20;101175.24;1770070;80;20902;-59
2022/03/27 02:21:02;;;;;;;35.52;16.45;;;;;;;-4.68;62.24;101176.75;1771704;79;20903;-59
2022/03/27 02:23:30;;;;;;;33.33;16.07;;;;;;;-4.72;62.35;101177.91;1773134;80;20970;-59
2022/03/27 02:25:56;;;;;;;;;;;;;;;-4.73;62.45;101178.73;1776896;80;20956;-59
2022/03/27 02:28:27;;;;;;;30.70;14.85;;;;;;;-4.77;62.54;101178.13;1775533;79;21075;-59
2022/03/27 02:30:54;;;;;;;30.12;13.70;;;;;;;-4.84;62.54;101181.27;1771539;79;21422;-59
2022/03/27 02:33:20;;;;;;;27.62;13.22;;;;;;;-4.86;62.56;101175.24;1765263;80;20923;-59
2022/03/27 02:35:49;;;;;;;26.80;12.63;;;;;;;-4.91;62.68;101179.29;1770681;79;21472;-59
2022/03/27 02:38:15;;;;;;;41.05;18.10;;;;;;;-4.96;62.73;101178.23;1760796;79;20942;-59
2022/03/27 02:40:44;;;;;;;36.85;16.70;;;;;;;-4.98;62.84;101186.25;1783387;79;21078;-59
2022/03/27 02:43:11;;;;;;;40.58;17.48;;;;;;;-4.97;62.93;101189.25;1771553;80;20938;-59
2022/03/27 02:45:39;;;;;;;40.95;17.20;;;;;;;-4.95;62.97;101189.77;1768173;79;21096;-59
2022/03/27 02:48:06;;;;;;;39.88;18.10;;;;;;;-4.93;63.04;101183.45;1779249;79;21475;-59
2022/03/27 02:50:36;;;;;;;41.05;17.92;;;;;;;-4.92;63.08;101185.62;1776114;79;20914;-59
2022/03/27 02:53:02;;;;;;;36.42;16.90;;;;;;;-4.93;63.14;101191.09;1764832;79;21117;-59
2022/03/27 02:55:29;;;;;;;39.80;17.50;;;;;;;-4.92;63.21;101190.71;1765581;79;21445;-59
2022/03/27 02:57:56;;;;;;;39.48;17.82;;;;;;;-4.90;63.25;101189.06;1771155;80;22283;-59
2022/03/27 03:00:23;;;;;;;36.40;17.02;;;;;;;-4.88;63.28;101189.59;1771833;79;21522;-59
2022/03/27 03:02:51;;;;;;;40.67;17.77;;;;;;;-4.90;63.29;101191.23;1782282;79;20998;-59
2022/03/27 03:05:18;;;;;;;46.00;18.07;;;;;;;-4.92;63.37;101189.44;1775047;80;21069;-59
2022/03/27 03:07:45;;;;;;;45.20;17.82;;;;;;;-4.90;63.48;101191.23;1773572;79;20948;-59
2022/03/27 03:10:14;;;;;;;36.40;15.25;;;;;;;-4.87;63.52;101182.81;1771358;79;21420;-59
2022/03/27 03:12:41;;;;;;;31.80;16.02;;;;;;;-4.90;63.53;101183.59;1757787;79;20897;-59
2022/03/27 03:15:09;;;;;;;39.00;18.05;;;;;;;-4.92;63.55;101191.58;1779177;79;21528;-59
2022/03/27 03:17:37;;;;;;;37.88;17.77;;;;;;;-4.92;63.66;101182.66;1755081;80;21109;-59
2022/03/27 03:20:03;;;;;;;;;;;;;;;-4.96;63.65;101180.78;1766968;80;21585;-59
2022/03/27 03:22:31;;;;;;;42.50;18.77;;;;;;;-5.01;63.74;101177.22;1765934;80;20118;-59
2022/03/27 03:25:04;;;;;;;35.95;16.82;;;;;;;-5.01;63.87;101172.13;1772019;79;20906;-59
2022/03/27 03:27:31;;;;;;;30.60;16.77;;;;;;;-5.06;63.80;101174.89;1783150;78;20894;-59
2022/03/27 03:29:57;;;;;;;31.50;14.07;;;;;;;-5.11;63.88;101170.02;1786521;78;20893;-59
2022/03/27 03:32:24;;;;;;;29.97;14.13;;;;;;;-5.14;63.89;101169.89;1778604;78;20933;-59
2022/03/27 03:34:51;;;;;;;27.02;12.80;;;;;;;-5.19;63.89;101160.38;1794988;78;20913;-59
2022/03/27 03:37:18;;;;;;;21.90;11.47;;;;;;;-5.19;64.25;101168.02;1782660;79;20890;-59
2022/03/27 03:39:46;;;;;;;22.53;9.20;;;;;;;-5.19;64.25;101168.02;1775981;78;21929;-59
2022/03/27 03:42:13;;;;;;;24.30;12.35;;;;;;;-5.17;64.05;101174.05;1778288;78;21881;-59
2022/03/27 03:44:41;;;;;;;24.77;12.30;;;;;;;-5.20;64.09;101184.12;1774419;78;20894;-59
2022/03/27 03:47:09;;;;;;;22.13;11.30;;;;;;;-5.21;64.12;101181.49;1775464;78;21167;-59
2022/03/27 03:49:36;;;;;;;18.80;9.90;;;;;;;-5.19;64.24;101183.30;1783568;78;20937;-59
2022/03/27 03:52:03;;;;;;;22.77;12.27;;;;;;;-5.23;64.32;101180.18;1777471;80;21474;-59
2022/03/27 03:54:29;;;;;;;17.87;9.85;;;;;;;-5.26;64.42;101177.92;1777164;78;21092;-59
2022/03/27 03:56:56;;;;;;;18.37;10.10;;;;;;;-5.29;64.51;101183.76;1787518;79;20893;-59
2022/03/27 03:59:23;;;;;;;25.77;11.60;;;;;;;-5.31;64.59;101190.45;1787220;78;20983;-59
2022/03/27 04:01:49;;;;;;;27.07;11.93;;;;;;;-5.29;64.63;101187.58;1774232;78;21892;-59
2022/03/27 04:04:16;;;;;;;24.27;11.20;;;;;;;-5.27;64.73;101179.58;1750661;80;20931;-60
2022/03/27 04:06:43;;;;;;;26.13;12.77;;;;;;;-5.26;64.75;101188.11;1749596;80;20987;-59
2022/03/27 04:09:10;;;;;;;23.50;11.83;;;;;;;-5.27;64.81;101194.84;1751774;80;21091;-59
2022/03/27 04:11:36;;;;;;;30.13;9.50;;;;;;;-5.28;64.88;101192.27;1788622;79;20934;-59
2022/03/27 04:14:03;;;;;;;30.00;12.37;;;;;;;-5.32;64.98;101196.37;1807466;78;21653;-59
2022/03/27 04:16:30;;;;;;;31.12;11.30;;;;;;;-5.31;65.09;101190.45;1795300;78;20909;-59
2022/03/27 04:18:57;;;;;;;31.30;12.03;;;;;;;-5.28;65.18;101188.03;1797174;78;21040;-59
2022/03/27 04:21:24;;;;;;;31.50;12.80;;;;;;;-5.24;65.24;101184.82;1783745;78;20888;-59
2022/03/27 04:23:50;;;;;;;27.95;12.85;;;;;;;-5.24;65.18;101191.19;1788780;78;20913;-59
2022/03/27 04:26:17;;;;;;;23.60;11.50;;;;;;;-5.22;65.28;101190.81;1797143;78;20865;-59
2022/03/27 04:28:45;;;;;;;22.52;11.80;;;;;;;-5.22;65.17;101195.91;1796832;78;20893;-59
2022/03/27 04:31:18;;;;;;;29.77;13.85;;;;;;;-5.24;65.28;101199.20;1796801;78;21056;-59
2022/03/27 04:33:45;;;;;;;31.93;14.28;;;;;;;-5.23;65.38;101206.91;1794456;78;20949;-59
2022/03/27 04:36:12;;;;;;;39.53;16.27;;;;;;;-5.18;65.38;101215.62;1795566;79;21451;-59
2022/03/27 04:38:38;;;;;;;32.98;15.93;;;;;;;-5.13;65.38;101216.19;1783382;79;20890;-59
2022/03/27 04:41:05;;;;;;;41.40;16.63;;;;;;;-5.04;65.57;101212.73;1782166;78;20917;-59
2022/03/27 04:43:32;;;;;;;36.23;15.70;;;;;;;-4.90;65.67;101216.72;1778293;79;21112;-59
2022/03/27 04:45:59;;;;;;;;;;;;;;;-4.75;65.71;101217.70;1784288;79;20902;-59
2022/03/27 04:48:25;;;;;;;37.57;16.10;;;;;;;-4.60;65.81;101205.95;1753086;80;20091;-59
2022/03/27 04:50:53;;;;;;;34.40;14.90;;;;;;;-4.39;65.93;101210.58;1765791;80;21145;-59
2022/03/27 04:53:20;;;;;;;;;;;;;;;-3.89;66.23;101210.27;1777208;80;20927;-59
2022/03/27 04:55:46;;;;;;;34.03;13.80;;;;;;;-3.48;65.93;101203.13;1769714;80;21043;-59
2022/03/27 04:58:13;;;;;;;28.37;12.60;;;;;;;-3.21;65.67;101203.59;1749315;80;20974;-59
2022/03/27 05:00:40;;;;;;;25.00;11.68;;;;;;;-3.02;65.57;101199.53;1773084;79;21359;-60
2022/03/27 05:03:06;;;;;;;26.27;12.55;;;;;;;-2.83;65.55;101190.75;1769039;79;20969;-59
2022/03/27 05:05:33;;;;;;;18.13;9.13;;;;;;;-2.70;65.48;101202.20;1772236;78;20923;-59
2022/03/27 05:08:00;;;;;;;21.83;8.67;;;;;;;-2.67;65.40;101209.97;1776215;79;21037;-59
2022/03/27 05:10:27;;;;;;;22.15;9.23;;;;;;;-2.71;65.36;101203.03;1772549;79;20851;-59
2022/03/27 05:12:54;;;;;;;30.53;9.30;;;;;;;-2.75;65.53;101196.08;1772159;79;20907;-60
2022/03/27 05:15:20;;;;;;;22.48;8.58;;;;;;;-2.76;65.58;101191.80;1777184;79;20960;-59
2022/03/27 05:17:56;;;;;;;17.57;8.13;;;;;;;-2.76;65.69;101191.80;1777813;78;21536;-59
2022/03/27 05:20:25;;;;;;;16.65;7.80;;;;;;;-2.74;65.88;101203.81;1770173;78;20989;-59
2022/03/27 05:22:51;;;;;;;22.00;8.83;;;;;;;-2.71;65.79;101214.55;1755203;80;20964;-59
2022/03/27 05:25:18;;;;;;;19.15;7.67;;;;;;;-2.66;66.00;101209.16;1778245;80;20939;-61
2022/03/27 05:27:55;;;;;;;16.45;8.45;;;;;;;-2.61;66.04;101199.91;1776133;78;20895;-60
2022/03/27 05:30:24;;;;;;;15.63;8.03;;;;;;;-2.57;66.12;101200.89;1774564;78;20892;-60
2022/03/27 05:32:53;;;;;;;19.20;8.00;;;;;;;-2.54;66.21;101212.08;1772779;78;21907;-59
2022/03/27 05:35:21;;;;;;;14.50;7.97;;;;;;;-2.48;66.31;101217.36;1749844;78;20919;-60
2022/03/27 05:37:48;;;;;;;28.17;11.03;;;;;;;-2.41;66.46;101218.41;1759701;78;20915;-60
2022/03/27 05:40:18;;;;;;;32.45;13.30;;;;;;;-2.28;66.56;101210.69;1766210;80;21439;-60
2022/03/27 05:42:45;;;;;;;36.75;16.15;;;;;;;-2.15;66.65;101214.05;1779361;78;20904;-60
2022/03/27 05:45:12;;;;;;;29.07;13.58;;;;;;;-1.99;66.68;101217.03;1774247;78;21561;-60
2022/03/27 05:47:41;;;;;;;34.60;13.03;;;;;;;-1.84;66.72;101221.30;1762512;78;21428;-59
2022/03/27 05:50:09;;;;;;;41.13;17.77;;;;;;;-1.73;66.73;101222.88;1776825;78;20942;-60
2022/03/27 05:52:36;;;;;;;50.78;24.87;;;;;;;-1.59;66.84;101226.67;1762478;79;20965;-60
2022/03/27 05:55:04;;;;;;;29.72;15.88;;;;;;;-1.42;66.95;101220.28;1769170;78;20915;-61
2022/03/27 05:57:31;;;;;;;36.05;15.08;;;;;;;-1.24;66.93;101214.73;1772799;80;21125;-61
2022/03/27 05:59:58;;;;;;;26.57;12.28;;;;;;;-1.05;67.02;101221.61;1759303;78;21412;-59
2022/03/27 06:02:25;;;;;;;21.27;10.33;;;;;;;-0.84;67.03;101217.38;1794788;78;20898;-59
2022/03/27 06:04:52;;;;;;;18.45;9.50;;;;;;;-0.65;67.00;101214.83;1764586;80;20944;-59
2022/03/27 06:07:18;;;;;;;18.02;8.33;;;;;;;-0.46;67.02;101210.55;1779021;80;20916;-61
2022/03/27 06:09:46;;;;;;;20.17;9.75;;;;;;;-0.32;67.00;101214.27;1785083;78;21419;-59
2022/03/27 06:12:14;;;;;;;21.25;8.70;;;;;;;-0.11;67.05;101209.12;1785431;78;21945;-59
2022/03/27 06:14:40;;;;;;;;;;;;;;;0.07;67.16;101208.20;1786484;79;20850;-59
2022/03/27 06:17:07;;;;;;;24.00;9.60;;;;;;;0.30;67.33;101207.77;1803802;78;20145;-59
2022/03/27 06:19:33;;;;;;;20.70;9.37;;;;;;;0.50;67.29;101208.98;1783626;78;20959;-59
2022/03/27 06:22:01;;;;;;;16.87;8.77;;;;;;;0.74;67.40;101208.55;1790588;78;22163;-59
2022/03/27 06:24:28;;;;;;;19.02;9.13;;;;;;;1.07;67.62;101206.95;1793643;78;20885;-59
2022/03/27 06:26:57;;;;;;;17.15;9.93;;;;;;;1.52;67.64;101207.16;1778811;78;20905;-60
2022/03/27 06:29:25;;;;;;;17.92;8.95;;;;;;;2.12;67.76;101214.75;1789783;80;20913;-60
2022/03/27 06:31:52;;;;;;;18.65;8.48;;;;;;;2.78;67.59;101217.56;1795655;78;20947;-60
2022/03/27 06:34:19;;;;;;;18.73;9.08;;;;;;;3.31;67.28;101226.13;1784226;78;21201;-60
2022/03/27 06:36:46;;;;;;;17.73;9.35;;;;;;;3.63;66.97;101233.19;1771067;80;20993;-60
2022/03/27 06:39:13;;;;;;;19.37;9.58;;;;;;;3.72;66.62;101238.40;1762928;79;20900;-57
2022/03/27 06:41:39;;;;;;;16.42;8.33;;;;;;;3.71;66.55;101236.68;1794740;78;20925;-57
2022/03/27 06:44:06;;;;;;;14.95;8.18;;;;;;;3.62;66.39;101235.35;1795070;78;20861;-57
2022/03/27 06:46:33;;;;;;;21.05;12.33;;;;;;;3.51;66.48;101239.59;1796503;78;20881;-57
2022/03/27 06:48:59;;;;;;;19.12;11.85;;;;;;;3.43;66.50;101230.50;1743087;80;20854;-57
2022/03/27 06:51:26;;;;;;;14.80;10.53;;;;;;;3.47;66.67;101232.66;1793449;78;20915;-57
2022/03/27 06:53:53;;;;;;;23.98;10.65;;;;;;;3.48;66.74;101237.85;1786100;78;20949;-57
2022/03/27 06:56:20;;;;;;;21.95;8.40;;;;;;;3.56;66.80;101230.16;1789701;78;20961;-62
2022/03/27 06:58:46;;;;;;;18.65;6.90;;;;;;;3.73;66.91;101221.20;1790390;78;21758;-58
2022/03/27 07:03:58;;;;;;;11.38;6.40;;;;;;;4.70;67.10;101203.80;1790519;78;20893;-62
2022/03/27 07:06:25;;;;;;;11.03;5.83;;;;;;;5.31;67.13;101201.57;1796481;79;20927;-61
2022/03/27 07:08:51;;;;;;;10.87;5.03;;;;;;;5.83;66.77;101193.64;1794819;79;20984;-59
2022/03/27 07:11:18;;;;;;;8.95;4.00;;;;;;;6.40;66.70;101206.77;1793041;79;21152;-60
2022/03/27 07:13:45;;;;;;;6.25;3.22;;;;;;;6.91;66.35;101204.22;1787432;79;20909;-60
2022/03/27 07:16:13;;;;;;;9.03;4.92;;;;;;;7.18;66.32;101197.92;1790155;79;20921;-61
2022/03/27 07:18:40;;;;;;;8.33;4.53;;;;;;;7.37;65.92;101198.59;1779618;79;20948;-58
2022/03/27 07:21:06;;;;;;;7.53;5.13;;;;;;;7.52;65.95;101192.81;1782467;79;20913;-60
2022/03/27 07:23:33;;;;;;;9.43;4.97;;;;;;;7.62;65.66;101198.34;1783059;78;21849;-59
2022/03/27 07:26:01;;;;;;;7.22;4.08;;;;;;;7.66;65.57;101196.11;1781187;79;20937;-59
2022/03/27 07:28:30;;;;;;;9.08;3.58;;;;;;;7.96;65.77;101199.22;1790507;78;20941;-59
2022/03/27 07:30:56;;;;;;;9.20;3.98;;;;;;;7.96;65.77;101199.22;1796934;79;20980;-59
2022/03/27 07:33:23;;;;;;;5.33;2.63;;;;;;;8.04;65.42;101209.09;1781445;78;20944;-58
2022/03/27 07:35:49;;;;;;;7.15;2.20;;;;;;;8.24;65.42;101204.47;1792478;78;21838;-59
2022/03/27 07:38:16;;;;;;;6.42;2.00;;;;;;;8.43;65.32;101196.41;1787259;78;20944;-59
2022/03/27 07:40:43;;;;;;;4.15;1.50;;;;;;;8.45;64.26;101194.66;1805981;78;21483;-59
2022/03/27 07:43:10;;;;;;;3.50;1.67;;;;;;;8.34;63.99;101193.92;1782324;79;20936;-59
2022/03/27 07:45:37;;;;;;;2.97;1.20;;;;;;;8.39;64.06;101184.34;1795805;78;20877;-59
2022/03/27 07:48:04;;;;;;;4.95;1.20;;;;;;;8.45;63.93;101180.34;1788925;78;20968;-58
2022/03/27 07:50:32;;;;;;;2.22;0.90;;;;;;;8.52;63.71;101180.68;1775233;80;20976;-58
2022/03/27 07:53:01;;;;;;;4.80;1.40;;;;;;;8.53;63.04;101182.83;1781198;80;26381;-58
2022/03/27 07:55:29;;;;;;;2.80;1.17;;;;;;;8.55;63.29;101185.84;1783142;79;21005;-59
2022/03/27 07:57:56;;;;;;;2.37;1.05;;;;;;;8.66;62.90;101180.46;1787369;80;20977;-59
2022/03/27 08:00:23;;;;;;;;;;;;;;;8.70;62.50;101169.95;1783939;80;21550;-60
2022/03/27 08:02:51;;;;;;;5.03;1.87;;;;;;;8.70;61.76;101181.67;1781191;79;20096;-59
2022/03/27 08:05:17;;;;;;;2.35;1.27;;;;;;;8.69;62.13;101183.02;1782778;80;20926;-58
2022/03/27 08:07:45;;;;;;;2.87;1.37;;;;;;;8.74;61.99;101175.55;1782548;80;21409;-58
2022/03/27 08:10:14;;;;;;;6.12;1.32;;;;;;;8.82;61.84;101170.63;1784202;80;20911;-59
2022/03/27 08:12:40;;;;;;;5.33;1.60;;;;;;;8.93;61.47;101172.61;1782554;79;21034;-59
2022/03/27 08:15:08;;;;;;;3.37;1.40;;;;;;;9.02;61.25;101168.56;1780561;79;21392;-59
2022/03/27 08:17:36;;;;;;;3.27;1.30;;;;;;;8.98;61.08;101168.19;1768152;79;20961;-59
2022/03/27 08:20:07;;;;;;;3.20;1.45;;;;;;;9.08;61.15;101163.23;1767294;80;22149;-59
2022/03/27 08:22:34;;;;;;;14.68;2.20;;;;;;;9.19;61.36;101169.11;1767522;80;20986;-59
2022/03/27 08:25:01;;;;;;;5.85;2.00;;;;;;;9.47;61.44;101158.16;1766215;80;21046;-59
2022/03/27 08:27:32;;;;;;;3.40;2.12;;;;;;;9.72;61.34;101157.64;1759161;80;21409;-59
2022/03/27 08:29:59;;;;;;;4.80;2.10;;;;;;;9.85;60.48;101155.20;1754977;80;20962;-59
2022/03/27 08:32:26;;;;;;;3.17;1.95;;;;;;;9.82;60.14;101159.17;1760825;80;20930;-59
2022/03/27 08:34:53;;;;;;;14.07;3.10;;;;;;;9.72;60.10;101161.55;1758997;79;20938;-59
2022/03/27 08:37:20;;;;;;;9.00;2.83;;;;;;;9.76;59.96;101160.16;1760283;79;21048;-59
2022/03/27 08:39:46;;;;;;;3.33;2.52;;;;;;;9.90;60.07;101159.88;1759116;80;20934;-59
2022/03/27 08:42:20;;;;;;;5.37;2.00;;;;;;;9.93;59.49;101158.50;1759247;80;20985;-59
2022/03/27 08:44:47;;;;;;;9.05;2.10;;;;;;;9.88;59.18;101146.00;1771365;79;21818;-59
2022/03/27 08:47:21;;;;;;;7.33;2.37;;;;;;;9.90;59.27;101136.39;1780962;78;20926;-59
2022/03/27 08:49:55;;;;;;;7.58;2.27;;;;;;;9.97;59.01;101130.16;1768763;80;21065;-59
2022/03/27 08:52:51;;;;;;;5.53;2.10;;;;;;;9.94;58.73;101127.63;1771662;80;20942;-59
2022/03/27 08:55:25;;;;;;;4.53;2.37;;;;;;;9.99;58.85;101124.44;1738615;80;20948;-59
2022/03/27 08:58:00;;;;;;;7.30;3.10;;;;;;;10.24;58.21;101119.97;1727921;80;37856;-59
2022/03/27 09:00:33;;;;;;;7.90;2.80;;;;;;;10.33;58.20;101117.16;1772317;79;20957;-59
2022/03/27 09:03:04;;;;;;;4.12;2.20;;;;;;;10.39;58.15;101114.43;1765910;79;21528;-59
2022/03/27 09:05:37;;;;;;;5.05;2.40;;;;;;;10.50;57.99;101112.41;1742404;80;20959;-59
2022/03/27 09:08:09;;;;;;;4.78;2.65;;;;;;;10.52;57.92;101113.20;1770424;79;21001;-59
2022/03/27 09:10:40;;;;;;;9.20;2.40;;;;;;;10.66;57.91;101115.48;1761131;78;21496;-59
2022/03/27 09:13:12;;;;;;;5.72;2.35;;;;;;;10.79;57.66;101108.66;1754501;79;21547;-59
2022/03/27 09:15:40;;;;;;;4.30;2.15;;;;;;;10.93;57.33;101103.45;1749720;80;21052;-59
2022/03/27 09:18:10;;;;;;;8.95;2.62;;;;;;;11.09;56.98;101105.64;1753672;80;20923;-59
2022/03/27 09:20:43;;;;;;;7.75;2.40;;;;;;;11.08;56.55;101098.72;1752698;80;20899;-59
2022/03/27 09:23:23;;;;;;;4.72;1.95;;;;;;;10.96;56.43;101094.69;1750799;80;20915;-59
2022/03/27 09:26:04;;;;;;;4.42;2.33;;;;;;;10.79;56.00;101100.36;1758041;80;20916;-59
2022/03/27 09:28:38;;;;;;;8.33;2.45;;;;;;;10.78;56.50;101075.11;1753005;79;21187;-59
2022/03/27 09:31:20;;;;;;;6.62;1.87;;;;;;;10.67;55.91;101069.31;1751286;80;20887;-59
2022/03/27 09:33:55;;;;;;;3.17;1.70;;;;;;;10.58;55.39;101064.33;1725817;80;21382;-59
2022/03/27 09:36:39;;;;;;;4.17;2.42;;;;;;;10.36;55.27;101072.70;1749966;79;20935;-59
2022/03/27 09:39:16;;;;;;;3.50;2.00;;;;;;;10.22;55.11;101067.81;1746305;80;20966;-60
2022/03/27 09:41:55;;;;;;;4.03;2.10;;;;;;;10.15;54.91;101071.91;1754027;79;21902;-60
2022/03/27 09:44:39;;;;;;;4.25;2.52;;;;;;;10.18;54.95;101073.13;1749162;80;20914;-59
2022/03/27 09:47:08;;;;;;;6.92;2.42;;;;;;;10.28;55.00;101072.06;1754305;80;20871;-59
2022/03/27 09:49:42;;;;;;;10.72;2.55;;;;;;;10.32;54.63;101078.91;1754553;80;20954;-58
2022/03/27 09:52:16;;;;;;;5.20;1.80;;;;;;;10.28;54.30;101077.28;1757023;79;20901;-60
2022/03/27 09:55:02;;;;;;;9.50;2.25;;;;;;;10.22;54.42;101065.62;1772873;79;21875;-59
2022/03/27 09:57:35;;;;;;;6.78;2.10;;;;;;;10.08;53.94;101064.23;1754387;80;20839;-60
2022/03/27 10:00:19;;;;;;;5.72;2.10;;;;;;;10.05;53.71;101073.44;1749526;79;20907;-59
2022/03/27 10:02:48;;;;;;;7.55;1.70;;;;;;;10.04;53.78;101058.66;1742008;80;20930;-59
2022/03/27 10:05:22;;;;;;;2.42;1.70;;;;;;;10.13;53.38;101050.20;1727632;82;21016;-59
2022/03/27 10:07:53;;;;;;;30.52;4.60;;;;;;;10.25;53.42;101052.50;1726665;81;21078;-59
2022/03/27 10:10:24;;;;;;;30.17;4.60;;;;;;;10.28;53.14;101053.78;1714100;82;20941;-60
2022/03/27 10:12:58;;;;;;;10.75;2.20;;;;;;;10.32;53.38;101052.80;1714609;82;20863;-59
2022/03/27 10:15:29;;;;;;;6.40;1.60;;;;;;;10.34;52.85;101054.94;1705835;82;21386;-59
2022/03/27 10:18:05;;;;;;;7.37;2.05;;;;;;;10.45;52.87;101046.38;1707750;82;21479;-59
2022/03/27 10:20:42;;;;;;;25.00;2.90;;;;;;;10.74;52.86;101036.91;1720268;81;21017;-59
2022/03/27 10:23:26;;;;;;;6.25;2.47;;;;;;;10.90;52.75;101031.69;1712377;82;20926;-59
2022/03/27 10:25:57;;;;;;;5.62;2.22;;;;;;;10.91;52.19;101019.02;1711346;81;20941;-59
2022/03/27 10:28:25;;;;;;;3.98;1.95;;;;;;;10.97;51.88;101021.45;1711757;82;21372;-59
2022/03/27 10:30:52;;;;;;;;;;;;;;;11.09;51.76;101015.47;1738233;80;21919;-59
2022/03/27 10:33:25;;;;;;;3.25;2.00;;;;;;;11.11;51.29;101007.14;1715629;81;20946;-59
2022/03/27 10:36:22;;;;;;;3.35;1.50;;;;;;;11.12;51.32;100995.80;1744709;80;21420;-59
2022/03/27 10:39:16;;;;;;;4.03;2.22;;;;;;;11.26;51.35;100993.64;1722706;81;20902;-60
2022/03/27 10:42:05;;;;;;;4.62;2.12;;;;;;;11.18;50.84;100985.16;1721662;82;21916;-60
2022/03/27 10:44:58;;;;;;;5.08;2.98;;;;;;;11.17;51.00;100983.43;1712849;83;20956;-59
2022/03/27 10:47:29;;;;;;;27.27;4.45;;;;;;;11.28;50.74;100970.89;1726485;82;21061;-59
2022/03/27 10:50:10;;;;;;;5.65;2.27;;;;;;;11.29;50.60;100970.01;1716532;82;20979;-59
2022/03/27 10:52:52;;;;;;;4.05;2.27;;;;;;;11.49;50.48;100960.70;1732523;81;20941;-59
2022/03/27 10:55:20;;;;;;;5.80;2.17;;;;;;;11.50;50.26;100957.16;1728185;82;20924;-60
2022/03/27 10:57:56;;;;;;;5.25;2.10;;;;;;;11.52;50.18;100960.59;1715015;82;21023;-62
2022/03/27 11:00:41;;;;;;;6.87;4.45;;;;;;;11.80;50.23;100961.42;1728943;82;21226;-60
2022/03/27 11:03:10;;;;;;;10.05;2.75;;;;;;;11.94;50.25;100963.62;1689375;83;21493;-58
2022/03/27 11:05:58;;;;;;;6.35;2.05;;;;;;;11.97;49.83;100962.66;1753829;79;21447;-58
2022/03/27 11:08:30;;;;;;;5.65;1.77;;;;;;;12.03;49.56;100959.84;1747043;79;20961;-57
2022/03/27 11:11:00;;;;;;;6.17;2.40;;;;;;;12.08;49.54;100951.38;1765191;80;20942;-57
2022/03/27 11:13:32;;;;;;;3.47;1.65;;;;;;;12.18;49.09;100940.97;1719376;81;21039;-58
2022/03/27 11:16:09;;;;;;;4.90;1.85;;;;;;;12.12;48.90;100928.09;1731862;81;20925;-58
2022/03/27 11:18:48;;;;;;;7.47;2.70;;;;;;;12.19;48.96;100919.14;1738010;82;21505;-57
2022/03/27 11:21:30;;;;;;;4.83;2.37;;;;;;;12.25;48.86;100911.06;1737417;81;21466;-58
2022/03/27 11:24:09;;;;;;;7.28;2.55;;;;;;;12.31;48.78;100900.36;1731605;81;20926;-58
2022/03/27 11:26:35;;;;;;;7.35;2.35;;;;;;;12.27;48.10;100883.06;1722186;81;21856;-58
2022/03/27 11:29:23;;;;;;;4.80;2.85;;;;;;;12.15;48.27;100888.72;1731682;81;20863;-58
2022/03/27 11:32:08;;;;;;;3.67;2.65;;;;;;;12.25;48.45;100882.26;1737664;81;20997;-57
2022/03/27 11:34:39;;;;;;;5.53;2.65;;;;;;;12.29;48.21;100886.50;1735444;82;20966;-58
2022/03/27 11:37:23;;;;;;;5.87;2.20;;;;;;;12.30;47.92;100889.96;1737555;81;20939;-58
2022/03/27 11:39:46;;;;;;;3.08;1.72;;;;;;;12.24;47.81;100878.41;1786558;79;21055;-58